createdAt,value
2018-08-19T00:00:00.346Z,21.88
2018-08-19T00:02:30.426Z,21.85
2018-08-19T00:05:11.888Z,21.82
2018-08-19T00:07:41.837Z,21.77
2018-08-19T00:10:11.817Z,21.76
2018-08-19T00:12:45.516Z,21.75
2018-08-19T00:15:16.103Z,21.74
2018-08-19T00:17:46.102Z,21.74
2018-08-19T00:20:16.382Z,21.71
2018-08-19T00:22:47.417Z,21.69
2018-08-19T00:25:33.566Z,21.65
2018-08-19T00:28:05.602Z,21.52
2018-08-19T00:30:35.633Z,21.47
2018-08-19T00:33:05.886Z,21.47
2018-08-19T00:35:35.698Z,21.45
2018-08-19T00:38:05.723Z,21.42
2018-08-19T00:40:35.699Z,21.43
2018-08-19T00:43:05.707Z,21.46
2018-08-19T00:45:35.777Z,21.43
2018-08-19T00:48:05.797Z,21.39
2018-08-19T00:50:35.646Z,21.40
2018-08-19T00:53:05.982Z,21.37
2018-08-19T00:55:41.332Z,21.37
2018-08-19T00:58:17.867Z,21.34
2018-08-19T01:00:47.872Z,21.31
2018-08-19T01:03:17.992Z,21.30
2018-08-19T01:05:47.917Z,21.31
2018-08-19T01:08:17.789Z,21.26
2018-08-19T01:10:47.847Z,21.24
2018-08-19T01:13:17.814Z,21.19
2018-08-19T01:15:47.678Z,21.16
2018-08-19T01:18:17.619Z,21.12
2018-08-19T01:20:47.897Z,21.10
2018-08-19T01:23:17.807Z,21.10
2018-08-19T01:25:47.852Z,21.11
2018-08-19T01:28:17.623Z,21.07
2018-08-19T01:30:47.684Z,21.06
2018-08-19T01:33:17.547Z,20.99
2018-08-19T01:35:47.459Z,20.95
2018-08-19T01:38:17.538Z,20.90
2018-08-19T01:40:47.519Z,20.91
2018-08-19T01:43:17.637Z,20.87
2018-08-19T01:45:48.366Z,20.86
2018-08-19T01:48:18.301Z,20.85
2018-08-19T01:50:48.374Z,20.87
2018-08-19T01:53:18.283Z,20.84
2018-08-19T01:55:48.223Z,20.88
2018-08-19T01:58:18.102Z,20.82
2018-08-19T02:00:48.091Z,20.78
2018-08-19T02:03:18.050Z,20.69
2018-08-19T02:05:47.869Z,20.60
2018-08-19T02:08:17.984Z,20.65
2018-08-19T02:10:47.773Z,20.65
2018-08-19T02:13:17.737Z,20.66
2018-08-19T02:15:47.741Z,20.66
2018-08-19T02:18:17.499Z,20.69
2018-08-19T02:20:47.359Z,20.66
2018-08-19T02:23:17.444Z,20.62
2018-08-19T02:25:48.698Z,20.62
2018-08-19T02:28:22.472Z,20.54
2018-08-19T02:31:00.219Z,20.46
2018-08-19T02:33:34.377Z,20.46
2018-08-19T02:36:06.926Z,20.44
2018-08-19T02:38:38.267Z,20.41
2018-08-19T02:41:08.643Z,20.36
2018-08-19T02:43:46.748Z,20.36
2018-08-19T02:46:17.232Z,20.40
2018-08-19T02:48:50.188Z,20.39
2018-08-19T02:51:20.946Z,20.39
2018-08-19T02:53:51.666Z,20.39
2018-08-19T02:56:21.465Z,20.33
2018-08-19T02:58:51.314Z,20.36
2018-08-19T03:01:21.464Z,20.36
2018-08-19T03:03:51.407Z,20.36
2018-08-19T03:06:21.273Z,20.34
2018-08-19T03:08:56.527Z,20.29
2018-08-19T03:11:26.363Z,20.26
2018-08-19T03:13:56.954Z,20.28
2018-08-19T03:16:26.884Z,20.28
2018-08-19T03:18:57.110Z,20.21
2018-08-19T03:21:27.276Z,20.13
2018-08-19T03:23:57.190Z,20.07
2018-08-19T03:26:27.993Z,20.09
2018-08-19T03:28:59.313Z,20.10
2018-08-19T03:31:29.204Z,20.06
2018-08-19T03:33:59.152Z,20.03
2018-08-19T03:36:29.045Z,20.01
2018-08-19T03:39:12.009Z,20.01
2018-08-19T03:41:41.805Z,19.99
2018-08-19T03:44:11.778Z,19.95
2018-08-19T03:46:41.754Z,19.93
2018-08-19T03:49:12.204Z,19.98
2018-08-19T03:51:42.416Z,19.93
2018-08-19T03:54:12.442Z,19.95
2018-08-19T03:56:42.302Z,19.76
2018-08-19T03:59:13.772Z,19.84
2018-08-19T04:01:44.876Z,19.78
2018-08-19T04:04:17.169Z,19.79
2018-08-19T04:06:47.140Z,19.81
2018-08-19T04:09:17.142Z,19.76
2018-08-19T04:12:02.684Z,19.82
2018-08-19T04:14:32.647Z,19.86
2018-08-19T04:17:03.379Z,19.83
2018-08-19T04:19:34.923Z,19.90
2018-08-19T04:22:06.492Z,19.83
2018-08-19T04:24:37.002Z,19.71
2018-08-19T04:27:09.483Z,19.70
2018-08-19T04:29:39.462Z,19.66
2018-08-19T04:32:19.540Z,19.71
2018-08-19T04:34:49.647Z,19.63
2018-08-19T04:37:19.690Z,19.58
2018-08-19T04:39:49.837Z,19.57
2018-08-19T04:42:20.005Z,19.61
2018-08-19T04:44:49.875Z,19.66
2018-08-19T04:47:32.531Z,19.72
2018-08-19T04:50:02.282Z,19.64
2018-08-19T04:52:34.138Z,19.71
2018-08-19T04:55:04.093Z,19.68
2018-08-19T04:57:33.887Z,19.72
2018-08-19T05:00:03.990Z,19.65
2018-08-19T05:02:34.022Z,19.54
2018-08-19T05:05:03.837Z,19.60
2018-08-19T05:07:33.895Z,19.51
2018-08-19T05:10:03.958Z,19.56
2018-08-19T05:12:33.883Z,19.76
2018-08-19T05:15:03.893Z,19.76
2018-08-19T05:17:33.802Z,19.83
2018-08-19T05:20:16.598Z,19.83
2018-08-19T05:22:46.492Z,19.87
2018-08-19T05:25:16.313Z,19.77
2018-08-19T05:27:52.009Z,19.90
2018-08-19T05:30:21.892Z,19.90
2018-08-19T05:32:55.763Z,19.83
2018-08-19T05:35:26.053Z,19.83
2018-08-19T05:37:56.184Z,19.82
2018-08-19T05:40:26.073Z,19.99
2018-08-19T05:42:55.988Z,20.13
2018-08-19T05:45:26.031Z,20.22
2018-08-19T05:48:09.340Z,20.17
2018-08-19T05:50:39.452Z,20.18
2018-08-19T05:53:09.239Z,20.22
2018-08-19T05:55:39.349Z,20.24
2018-08-19T05:58:09.291Z,20.35
2018-08-19T06:00:43.933Z,20.31
2018-08-19T06:03:13.718Z,20.29
2018-08-19T06:05:43.589Z,20.39
2018-08-19T06:08:15.557Z,20.40
2018-08-19T06:10:45.611Z,20.42
2018-08-19T06:13:15.390Z,20.49
2018-08-19T06:15:45.621Z,20.65
2018-08-19T06:18:15.403Z,20.64
2018-08-19T06:20:46.230Z,20.72
2018-08-19T06:23:15.944Z,20.76
2018-08-19T06:25:45.558Z,20.86
2018-08-19T06:28:15.069Z,20.88
2018-08-19T06:30:45.034Z,20.91
2018-08-19T06:33:15.016Z,20.90
2018-08-19T06:35:44.809Z,20.93
2018-08-19T06:38:14.289Z,20.97
2018-08-19T06:40:44.064Z,20.95
2018-08-19T06:43:13.634Z,21.03
2018-08-19T06:45:43.177Z,21.03
2018-08-19T06:48:12.948Z,21.13
2018-08-19T06:50:43.119Z,21.21
2018-08-19T06:53:16.911Z,21.31
2018-08-19T06:55:46.763Z,21.38
2018-08-19T06:58:16.673Z,21.43
2018-08-19T07:00:46.800Z,21.49
2018-08-19T07:03:16.864Z,21.53
2018-08-19T07:06:02.178Z,21.55
2018-08-19T07:08:32.363Z,21.98
2018-08-19T07:11:02.628Z,22.08
2018-08-19T07:13:32.550Z,22.38
2018-08-19T07:16:01.998Z,22.82
2018-08-19T07:18:31.873Z,22.89
2018-08-19T07:21:01.509Z,23.15
2018-08-19T07:23:31.376Z,23.06
2018-08-19T07:26:00.840Z,23.03
2018-08-19T07:28:30.224Z,23.04
2018-08-19T07:31:00.234Z,23.13
2018-08-19T07:33:30.788Z,23.03
2018-08-19T07:36:00.712Z,23.18
2018-08-19T07:38:30.684Z,22.77
2018-08-19T07:41:00.628Z,23.04
2018-08-19T07:43:30.435Z,23.28
2018-08-19T07:46:00.325Z,23.25
2018-08-19T07:48:30.245Z,23.11
2018-08-19T07:51:00.204Z,23.21
2018-08-19T07:53:30.056Z,23.23
2018-08-19T07:55:59.988Z,23.20
2018-08-19T07:58:41.725Z,23.22
2018-08-19T08:01:11.805Z,23.45
2018-08-19T08:03:41.681Z,23.51
2018-08-19T08:06:11.137Z,23.53
2018-08-19T08:08:40.886Z,23.56
2018-08-19T08:11:10.433Z,23.73
2018-08-19T08:13:40.046Z,23.77
2018-08-19T08:16:09.608Z,23.90
2018-08-19T08:18:39.250Z,23.79
2018-08-19T08:21:15.511Z,23.54
2018-08-19T08:23:45.504Z,23.49
2018-08-19T08:26:15.699Z,23.41
2018-08-19T08:28:53.760Z,23.12
2018-08-19T08:31:23.973Z,22.68
2018-08-19T08:33:54.195Z,22.58
2018-08-19T08:36:24.301Z,22.64
2018-08-19T08:38:54.306Z,22.93
2018-08-19T08:41:24.224Z,23.02
2018-08-19T08:43:54.018Z,22.96
2018-08-19T08:46:23.930Z,22.79
2018-08-19T08:48:53.874Z,22.40
2018-08-19T08:51:23.966Z,22.24
2018-08-19T08:53:53.556Z,22.35
2018-08-19T08:56:23.687Z,22.24
2018-08-19T08:58:53.104Z,22.46
2018-08-19T09:01:22.639Z,22.62
2018-08-19T09:03:52.416Z,22.55
2018-08-19T09:06:27.194Z,22.67
2018-08-19T09:08:57.743Z,22.86
2018-08-19T09:11:27.465Z,23.19
2018-08-19T09:13:57.256Z,23.21
2018-08-19T09:16:27.072Z,23.00
2018-08-19T09:18:57.180Z,23.38
2018-08-19T09:26:19.848Z,23.79
2018-08-19T09:28:49.368Z,23.48
2018-08-19T09:31:19.069Z,23.38
2018-08-19T09:33:48.530Z,23.19
2018-08-19T09:36:18.124Z,23.28
2018-08-19T09:38:47.562Z,23.63
2018-08-19T09:41:17.258Z,23.69
2018-08-19T09:43:46.774Z,23.07
2018-08-19T09:46:16.375Z,23.05
2018-08-19T09:48:46.226Z,23.21
2018-08-19T09:51:16.275Z,23.27
2018-08-19T09:53:46.469Z,23.53
2018-08-19T09:56:16.246Z,23.55
2018-08-19T09:58:50.934Z,23.58
2018-08-19T10:01:25.986Z,23.26
2018-08-19T10:03:55.849Z,22.90
2018-08-19T10:06:25.669Z,23.10
2018-08-19T10:08:55.146Z,23.10
2018-08-19T10:11:24.665Z,23.10
2018-08-19T10:13:59.095Z,23.42
2018-08-19T10:16:41.716Z,23.78
2018-08-19T10:19:11.684Z,24.06
2018-08-19T10:21:41.253Z,24.05
2018-08-19T10:24:33.984Z,24.17
2018-08-19T10:27:08.550Z,24.19
2018-08-19T10:29:38.415Z,24.18
2018-08-19T10:32:08.219Z,24.25
2018-08-19T10:34:38.134Z,24.34
2018-08-19T10:37:08.318Z,24.13
2018-08-19T10:39:38.359Z,24.25
2018-08-19T10:42:21.830Z,24.27
2018-08-19T10:44:52.552Z,24.16
2018-08-19T10:47:22.313Z,24.23
2018-08-19T10:49:58.626Z,24.21
2018-08-19T10:52:30.851Z,24.14
2018-08-19T10:55:01.404Z,24.37
2018-08-19T10:57:31.975Z,24.54
2018-08-19T11:00:02.108Z,24.63
2018-08-19T11:02:32.178Z,24.73
2018-08-19T11:05:02.131Z,24.84
2018-08-19T11:07:32.175Z,24.89
2018-08-19T11:10:21.675Z,25.02
2018-08-19T11:12:54.459Z,25.06
2018-08-19T11:15:49.990Z,25.18
2018-08-19T11:18:43.389Z,25.14
2018-08-19T11:21:14.820Z,25.15
2018-08-19T11:23:46.305Z,25.27
2018-08-19T11:26:16.396Z,25.39
2018-08-19T11:28:51.938Z,25.51
2018-08-19T11:31:27.873Z,25.57
2018-08-19T11:34:00.310Z,25.61
2018-08-19T11:36:36.886Z,25.78
2018-08-19T11:39:12.193Z,25.92
2018-08-19T11:41:41.962Z,26.00
2018-08-19T11:44:15.994Z,26.00
2018-08-19T11:46:46.211Z,25.95
2018-08-19T11:49:19.285Z,25.99
2018-08-19T11:51:52.722Z,25.94
2018-08-19T11:54:23.736Z,26.06
2018-08-19T11:57:01.916Z,26.23
2018-08-19T11:59:45.277Z,26.09
2018-08-19T12:02:20.357Z,26.13
2018-08-19T12:04:50.918Z,26.24
2018-08-19T12:08:11.632Z,26.01
2018-08-19T12:10:41.058Z,26.14
2018-08-19T12:13:10.686Z,26.25
2018-08-19T12:15:40.642Z,25.93
2018-08-19T12:18:10.279Z,25.78
2018-08-19T12:20:39.985Z,25.79
2018-08-19T12:23:10.866Z,26.00
2018-08-19T12:25:40.487Z,26.24
2018-08-19T12:28:10.151Z,26.19
2018-08-19T12:30:39.901Z,26.25
2018-08-19T12:33:24.551Z,26.57
2018-08-19T12:35:56.819Z,26.46
2018-08-19T12:38:27.141Z,26.26
2018-08-19T12:40:57.170Z,26.33
2018-08-19T12:43:27.557Z,26.53
2018-08-19T12:45:58.370Z,26.71
2018-08-19T12:48:28.687Z,26.83
2018-08-19T12:51:05.548Z,27.01
2018-08-19T12:53:35.860Z,26.75
2018-08-19T12:56:05.961Z,26.92
2018-08-19T12:58:35.791Z,27.15
2018-08-19T13:01:06.157Z,27.36
2018-08-19T13:03:36.316Z,27.43
2018-08-19T13:06:08.031Z,27.35
2018-08-19T13:08:38.254Z,27.48
2018-08-19T13:11:08.952Z,27.53
2018-08-19T13:13:39.144Z,27.65
2018-08-19T13:16:09.124Z,27.40
2018-08-19T13:18:42.164Z,27.64
2018-08-19T13:21:16.270Z,27.43
2018-08-19T13:23:46.639Z,27.70
2018-08-19T13:26:16.505Z,27.53
2018-08-19T13:28:54.517Z,27.63
2018-08-19T13:31:28.165Z,27.41
2018-08-19T13:33:57.590Z,27.66
2018-08-19T13:36:27.082Z,27.77
2018-08-19T13:38:56.506Z,27.56
2018-08-19T13:41:25.965Z,27.82
2018-08-19T13:43:55.477Z,28.09
2018-08-19T13:46:25.063Z,28.10
2018-08-19T13:48:54.537Z,28.13
2018-08-19T13:51:23.971Z,27.98
2018-08-19T13:53:53.652Z,28.11
2018-08-19T13:56:23.517Z,28.21
2018-08-19T13:58:53.018Z,27.76
2018-08-19T14:01:22.445Z,27.85
2018-08-19T14:03:52.092Z,28.20
2018-08-19T14:06:21.976Z,28.60
2018-08-19T14:08:52.776Z,28.91
2018-08-19T14:11:22.399Z,28.93
2018-08-19T14:13:52.280Z,28.60
2018-08-19T14:16:21.970Z,28.75
2018-08-19T14:18:51.547Z,28.31
2018-08-19T14:21:21.072Z,28.56
2018-08-19T14:23:50.736Z,28.70
2018-08-19T14:26:20.324Z,28.74
2018-08-19T14:28:49.827Z,28.91
2018-08-19T14:31:19.247Z,29.06
2018-08-19T14:33:48.825Z,29.15
2018-08-19T14:36:18.418Z,28.76
2018-08-19T14:38:48.170Z,28.81
2018-08-19T14:41:17.748Z,28.68
2018-08-19T14:43:59.494Z,28.88
2018-08-19T14:46:30.197Z,28.62
2018-08-19T14:49:03.914Z,28.63
2018-08-19T14:52:02.399Z,28.78
2018-08-19T14:54:33.429Z,28.80
2018-08-19T14:57:03.618Z,29.11
2018-08-19T14:59:33.107Z,29.36
2018-08-19T15:02:02.797Z,29.37
2018-08-19T15:04:32.197Z,28.99
2018-08-19T15:07:01.907Z,29.28
2018-08-19T15:09:32.543Z,29.22
2018-08-19T15:12:13.101Z,28.97
2018-08-19T15:14:43.323Z,28.96
2018-08-19T15:17:13.007Z,28.89
2018-08-19T15:19:48.627Z,28.97
2018-08-19T15:22:18.652Z,29.21
2018-08-19T15:24:48.616Z,29.42
2018-08-19T15:27:18.728Z,29.49
2018-08-19T15:29:51.704Z,29.80
2018-08-19T15:32:24.308Z,30.06
2018-08-19T15:34:54.371Z,31.14
2018-08-19T15:37:24.345Z,31.67
2018-08-19T15:39:54.367Z,32.11
2018-08-19T15:42:24.423Z,33.16
2018-08-19T15:44:54.446Z,31.74
2018-08-19T15:47:24.427Z,32.13
2018-08-19T15:50:14.065Z,33.10
2018-08-19T15:52:45.164Z,33.45
2018-08-19T15:55:15.554Z,33.41
2018-08-19T15:57:45.452Z,33.14
2018-08-19T16:00:15.551Z,33.72
2018-08-19T16:02:45.505Z,32.76
2018-08-19T16:05:16.482Z,33.15
2018-08-19T16:07:47.335Z,33.28
2018-08-19T16:10:17.479Z,34.00
2018-08-19T16:12:49.894Z,34.78
2018-08-19T16:15:26.051Z,34.19
2018-08-19T16:17:57.261Z,34.43
2018-08-19T16:20:27.447Z,34.97
2018-08-19T16:22:57.525Z,33.94
2018-08-19T16:25:27.415Z,34.21
2018-08-19T16:27:57.517Z,33.38
2018-08-19T16:30:27.774Z,33.22
2018-08-19T16:32:57.840Z,33.03
2018-08-19T16:35:28.005Z,32.16
2018-08-19T16:37:57.960Z,31.96
2018-08-19T16:40:28.204Z,32.46
2018-08-19T16:42:58.160Z,33.14
2018-08-19T16:45:28.286Z,33.56
2018-08-19T16:47:58.330Z,34.27
2018-08-19T16:50:28.921Z,34.22
2018-08-19T16:52:58.849Z,32.82
2018-08-19T16:55:28.891Z,32.58
2018-08-19T16:57:58.966Z,32.97
2018-08-19T17:00:28.909Z,32.71
2018-08-19T17:02:59.025Z,33.30
2018-08-19T17:05:33.451Z,32.67
2018-08-19T17:08:03.510Z,31.71
2018-08-19T17:10:33.137Z,32.15
2018-08-19T17:13:02.567Z,32.32
2018-08-19T17:15:32.565Z,32.12
2018-08-19T17:18:02.548Z,31.15
2018-08-19T17:20:32.535Z,31.39
2018-08-19T17:23:03.624Z,31.88
2018-08-19T17:25:34.727Z,31.65
2018-08-19T17:28:10.646Z,32.07
2018-08-19T17:30:40.849Z,31.95
2018-08-19T17:33:11.460Z,32.33
2018-08-19T17:35:44.226Z,32.26
2018-08-19T17:38:14.552Z,31.99
2018-08-19T17:40:46.105Z,32.06
2018-08-19T17:43:16.054Z,31.70
2018-08-19T17:45:49.889Z,31.31
2018-08-19T17:48:19.994Z,30.42
2018-08-19T17:50:50.416Z,29.92
2018-08-19T17:53:20.414Z,29.27
2018-08-19T17:55:50.379Z,28.81
2018-08-19T17:58:21.760Z,28.39
2018-08-19T18:05:49.965Z,27.79
2018-08-19T18:08:20.161Z,27.61
2018-08-19T18:10:56.192Z,27.49
2018-08-19T18:13:27.004Z,27.45
2018-08-19T18:15:57.507Z,27.30
2018-08-19T18:18:28.572Z,27.20
2018-08-19T18:20:59.351Z,27.15
2018-08-19T18:23:29.522Z,27.13
2018-08-19T18:25:59.648Z,27.05
2018-08-19T18:28:31.075Z,27.08
2018-08-19T18:33:53.109Z,26.76
2018-08-19T18:36:24.638Z,26.71
2018-08-19T18:38:54.714Z,26.62
2018-08-19T18:41:30.114Z,26.41
2018-08-19T18:44:01.663Z,26.40
2018-08-19T18:46:32.339Z,26.44
2018-08-19T18:49:09.552Z,26.40
2018-08-19T18:51:40.966Z,26.39
2018-08-19T18:54:20.705Z,26.30
2018-08-19T18:56:52.037Z,26.37
2018-08-19T18:59:22.765Z,26.28
2018-08-19T19:01:57.944Z,26.23
2018-08-19T19:04:28.276Z,26.16
2018-08-19T19:06:58.389Z,26.08
2018-08-19T19:09:38.832Z,26.14
2018-08-19T19:12:08.970Z,26.21
2018-08-19T19:14:40.930Z,26.12
2018-08-19T19:17:11.406Z,26.16
2018-08-19T19:19:46.498Z,26.11
2018-08-19T19:22:16.674Z,26.05
2018-08-19T19:24:47.051Z,26.09
2018-08-19T19:27:17.315Z,26.16
2018-08-19T19:29:51.795Z,26.25
2018-08-19T19:32:26.026Z,26.35
2018-08-19T19:34:57.704Z,26.35
2018-08-19T19:37:28.107Z,26.36
2018-08-19T19:40:03.701Z,26.40
2018-08-19T19:42:34.339Z,26.45
2018-08-19T19:45:04.599Z,26.48
2018-08-19T19:47:34.910Z,26.48
2018-08-19T19:50:05.745Z,26.49
2018-08-19T19:52:35.871Z,26.51
2018-08-19T19:55:05.955Z,26.50
2018-08-19T19:57:36.112Z,26.53
2018-08-19T20:00:06.074Z,26.53
2018-08-19T20:02:36.262Z,26.53
2018-08-19T20:05:12.330Z,26.51
2018-08-19T20:07:42.688Z,26.45
2018-08-19T20:10:19.580Z,26.46
2018-08-19T20:12:49.565Z,26.46
2018-08-19T20:15:19.933Z,26.41
2018-08-19T20:17:50.034Z,26.33
2018-08-19T20:20:20.332Z,26.39
2018-08-19T20:22:50.546Z,26.37
2018-08-19T20:25:20.844Z,26.36
2018-08-19T20:27:55.448Z,26.41
2018-08-19T20:30:25.306Z,26.33
2018-08-19T20:32:55.130Z,26.16
2018-08-19T20:35:25.240Z,26.01
2018-08-19T20:37:55.957Z,25.89
2018-08-19T20:40:25.786Z,25.76
2018-08-19T20:42:55.610Z,25.64
2018-08-19T20:45:25.312Z,25.57
2018-08-19T20:47:55.398Z,25.48
2018-08-19T20:50:25.302Z,25.42
2018-08-19T20:52:55.403Z,25.34
2018-08-19T20:55:25.697Z,25.07
2018-08-19T20:57:55.716Z,25.00
2018-08-19T21:00:25.811Z,24.97
2018-08-19T21:02:55.844Z,24.73
2018-08-19T21:05:25.814Z,24.31
2018-08-19T21:08:14.794Z,24.31
2018-08-19T21:10:45.696Z,24.23
2018-08-19T21:13:17.091Z,24.17
2018-08-19T21:15:50.691Z,24.01
2018-08-19T21:18:20.815Z,24.00
2018-08-19T21:20:51.077Z,23.88
2018-08-19T21:23:21.105Z,23.81
2018-08-19T21:25:56.305Z,23.80
2018-08-19T21:28:26.385Z,23.81
2018-08-19T21:30:56.594Z,23.86
2018-08-19T21:33:26.719Z,23.76
2018-08-19T21:35:57.396Z,23.71
2018-08-19T21:38:27.546Z,23.75
2018-08-19T21:40:58.526Z,23.79
2018-08-19T21:43:31.376Z,23.71
2018-08-19T21:46:01.949Z,23.70
2018-08-19T21:48:32.105Z,23.64
2018-08-19T21:51:02.100Z,23.72
2018-08-19T21:53:32.242Z,23.81
2018-08-19T21:56:02.221Z,23.91
2018-08-19T21:58:32.019Z,24.00
2018-08-19T22:01:03.381Z,24.04
2018-08-19T22:03:38.606Z,24.13
2018-08-19T22:06:09.587Z,24.08
2018-08-19T22:08:39.625Z,24.12
2018-08-19T22:11:09.582Z,24.17
2018-08-19T22:13:39.465Z,24.20
2018-08-19T22:16:09.374Z,24.24
2018-08-19T22:18:39.500Z,24.24
2018-08-19T22:21:19.137Z,24.28
2018-08-19T22:23:50.310Z,24.32
2018-08-19T22:26:21.324Z,24.33
2018-08-19T22:29:09.215Z,24.36
2018-08-19T22:31:39.226Z,24.36
2018-08-19T22:34:09.334Z,24.41
2018-08-19T22:36:39.265Z,24.46
2018-08-19T22:39:11.763Z,24.44
2018-08-19T22:41:42.153Z,24.44
2018-08-19T22:44:12.334Z,24.48
2018-08-19T22:46:42.488Z,24.50
2018-08-19T22:49:12.707Z,24.50
2018-08-19T22:51:42.920Z,24.47
2018-08-19T22:54:12.745Z,24.50
2018-08-19T22:56:42.599Z,24.50
2018-08-19T22:59:12.505Z,24.51
2018-08-19T23:01:49.019Z,24.49
2018-08-19T23:04:19.020Z,24.44
2018-08-19T23:06:49.031Z,24.41
2018-08-19T23:09:19.104Z,24.40
2018-08-19T23:11:48.985Z,24.42
2018-08-19T23:14:35.281Z,24.42
2018-08-19T23:17:08.645Z,24.42
2018-08-19T23:19:38.755Z,24.44
2018-08-19T23:22:08.728Z,24.40
2018-08-19T23:24:38.774Z,24.36
2018-08-19T23:27:08.785Z,24.41
2018-08-19T23:29:39.059Z,24.39
2018-08-19T23:32:09.170Z,24.46
2018-08-19T23:34:39.110Z,24.36
2018-08-19T23:37:09.074Z,24.31
2018-08-19T23:39:39.064Z,24.26
2018-08-19T23:42:08.930Z,24.20
2018-08-19T23:44:38.895Z,24.26
2018-08-19T23:47:09.165Z,24.19
2018-08-19T23:49:39.058Z,24.16
2018-08-19T23:52:09.144Z,24.18
2018-08-19T23:54:39.139Z,24.22
2018-08-19T23:57:09.104Z,24.07
2018-08-19T23:59:39.273Z,24.11
